aviador You're here:

SARE Decoded Metar

RESISTENCIA in ARGENTINA
Report Time2017-12-11 05:00:00
UTC Time2017-12-11 05:32:34
Flight Rules vfr VFR
Wind190° at 04 kt
W.Decomp.*RWY 21: 4.0 kt HW 0.6 kt LCW
W.Rank190° ranks 22
Current wind is below 190° avg. (6.3)
Visibility9999 m
Phenomena:N/A
Clouds:N/A
Expected CloudBase > 2,000 ft AGL from Temp-Dew spread
CeilingNone
Temp22°C (ISA +7)
Dew Point17°C (73% RH)
QNH1007 hPa
Density Alt1,486 ft
Elevation171 ft
Report Wrong Elevation
Raw Report
SARE 110500Z 19004KT CAVOK 22/17 Q1007=

Extra information for SARE:More info

Metar Taf Metar & Taf Last 4 Metars F.Rules Stats Wind Profile Meteogram Temp Stats Airport Information Weather charts Add Link Nearby VenuesMetar ALERT Operation Metar Decoded Social comments